Time;durP1;ratioP1;P1;durP2;ratioP2;P2;SDS_P1;SDS_P2;PMS_P1;PMS_P2;Temp;Humidity;BMP_temperature;BMP_pressure;BME280_temperature;BME280_humidity;BME280_pressure;Samples;Min_cycle;Max_cycle;Signal;HPM_P1;HPM_P2
2021/12/17 00:03:06;;;;;;;;;;;6.80;99.90;;;;;;5045544;28;19917;-76
2021/12/17 00:07:26;;;;;;;;;;;6.80;99.90;;;;;;5045634;28;19920;-78
2021/12/17 00:09:54;;;;;;;;;;;6.70;99.90;;;;;;5046339;28;20255;-76
2021/12/17 00:12:21;;;;;;;;;;;6.80;99.90;;;;;;5045761;28;20015;-77
2021/12/17 00:14:48;;;;;;;;;;;6.80;99.90;;;;;;5047799;28;20032;-76
2021/12/17 00:17:19;;;;;;;;;;;6.80;99.90;;;;;;5042791;28;21747;-76
2021/12/17 00:49:38;;;;;;;;;;;7.00;99.90;;;;;;5050148;28;19931;-77
2021/12/17 00:52:03;;;;;;;;;;;7.00;99.90;;;;;;5047891;28;20330;-76
2021/12/17 00:54:32;;;;;;;;;;;7.00;99.90;;;;;;5044572;28;19931;-76
2021/12/17 00:57:00;;;;;;;;;;;7.00;99.90;;;;;;5049200;28;19998;-77
2021/12/17 00:59:25;;;;;;;;;;;7.00;99.90;;;;;;5056076;28;19997;-77
2021/12/17 01:01:52;;;;;;;;;;;7.00;99.90;;;;;;5046952;28;20320;-76
2021/12/17 01:04:18;;;;;;;;;;;7.10;99.90;;;;;;5063112;28;19926;-76
2021/12/17 01:06:44;;;;;;;;;;;7.10;99.90;;;;;;5048097;28;19916;-76
2021/12/17 01:09:10;;;;;;;;;;;7.10;99.90;;;;;;5048986;28;20300;-77
2021/12/17 01:11:36;;;;;;;;;;;7.10;99.90;;;;;;5049400;28;20027;-76
2021/12/17 01:14:02;;;;;;;;;;;7.10;99.90;;;;;;5049269;28;20015;-77
2021/12/17 01:16:27;;;;;;;;;;;7.10;99.90;;;;;;5051197;28;19924;-77
2021/12/17 01:19:08;;;;;;;;;;;7.10;99.90;;;;;;5048547;28;19917;-77
2021/12/17 01:21:54;;;;;;;;;;;7.10;99.90;;;;;;5046295;28;20003;-77
2021/12/17 01:42:47;;;;;;;;;;;7.40;99.90;;;;;;5047701;28;20011;-77
2021/12/17 01:45:12;;;;;;;;;;;7.30;99.90;;;;;;5046592;28;20008;-76
2021/12/17 01:47:38;;;;;;;;;;;7.30;99.90;;;;;;5050586;28;19916;-76
2021/12/17 02:01:19;;;;;;;;;;;7.50;99.90;;;;;;5050853;28;19974;-77
2021/12/17 02:03:45;;;;;;;;;;;7.50;99.90;;;;;;5048990;28;20200;-77
2021/12/17 02:06:11;;;;;;;;;;;7.60;99.90;;;;;;5048563;28;20220;-77
2021/12/17 02:08:37;;;;;;;;;;;7.50;99.90;;;;;;5047903;28;19951;-76
2021/12/17 02:30:39;;;;;;;;;;;7.50;99.90;;;;;;5044225;28;19927;-76
2021/12/17 02:33:04;;;;;;;;;;;7.50;99.90;;;;;;5046114;28;19913;-76
2021/12/17 02:35:34;;;;;;;;;;;7.50;99.90;;;;;;5047663;28;19921;-77
2021/12/17 02:38:01;;;;;;;;;;;7.40;99.90;;;;;;5040782;28;20201;-76
2021/12/17 02:45:45;;;;;;;;;;;7.40;99.90;;;;;;5046001;28;19960;-76
2021/12/17 02:48:11;;;;;;;;;;;7.50;99.90;;;;;;5045069;28;19978;-76
2021/12/17 02:50:40;;;;;;;;;;;7.40;99.90;;;;;;5044703;28;19925;-77
2021/12/17 02:53:08;;;;;;;;;;;7.40;99.90;;;;;;5040202;28;19928;-77
2021/12/17 02:55:36;;;;;;;;;;;7.30;99.90;;;;;;5045948;28;19928;-77
2021/12/17 02:58:02;;;;;;;;;;;7.40;99.90;;;;;;5044127;28;20064;-77
2021/12/17 03:00:28;;;;;;;;;;;7.40;99.90;;;;;;5046441;28;19916;-77
2021/12/17 03:02:54;;;;;;;;;;;7.40;99.90;;;;;;5044006;28;19917;-77
2021/12/17 03:05:21;;;;;;;;;;;7.40;99.90;;;;;;5044046;28;19917;-77
2021/12/17 03:07:48;;;;;;;;;;;7.40;99.90;;;;;;5042974;28;19920;-77
2021/12/17 03:10:14;;;;;;;;;;;7.40;99.90;;;;;;5042910;28;19925;-77
2021/12/17 03:12:54;;;;;;;;;;;7.40;99.90;;;;;;5043496;28;20024;-76
2021/12/17 03:23:42;;;;;;;;;;;7.40;99.90;;;;;;5047027;28;19974;-77
2021/12/17 03:26:11;;;;;;;;;;;7.40;99.90;;;;;;5044820;28;19927;-77
2021/12/17 03:28:37;;;;;;;;;;;7.40;99.90;;;;;;5045043;28;19917;-77
2021/12/17 03:31:04;;;;;;;;;;;7.40;99.90;;;;;;5043390;28;19971;-76
2021/12/17 03:33:29;;;;;;;;;;;7.40;99.90;;;;;;5044132;28;19923;-77
2021/12/17 03:35:55;;;;;;;;;;;7.30;99.90;;;;;;5038815;28;19917;-76
2021/12/17 03:38:21;;;;;;;;;;;7.30;99.90;;;;;;5045050;28;19920;-77
2021/12/17 03:40:47;;;;;;;;;;;7.30;99.90;;;;;;5043752;28;19927;-77
2021/12/17 03:43:21;;;;;;;;;;;7.30;99.90;;;;;;5041439;28;19916;-77
2021/12/17 03:45:46;;;;;;;;;;;7.20;99.90;;;;;;5043747;28;20231;-77
2021/12/17 03:48:12;;;;;;;;;;;7.20;99.90;;;;;;5040668;28;19926;-76
2021/12/17 03:50:38;;;;;;;;;;;7.20;99.90;;;;;;5043746;28;19968;-77
2021/12/17 03:53:04;;;;;;;;;;;7.20;99.90;;;;;;5043127;28;20755;-77
2021/12/17 03:55:30;;;;;;;;;;;7.30;99.90;;;;;;5037732;28;20480;-76
2021/12/17 03:57:58;;;;;;;;;;;7.20;99.90;;;;;;5045725;28;20298;-78
2021/12/17 04:00:24;;;;;;;;;;;7.30;99.90;;;;;;5046514;28;19917;-77
2021/12/17 04:02:50;;;;;;;;;;;7.30;99.90;;;;;;5044701;28;20239;-76
2021/12/17 04:05:15;;;;;;;;;;;7.20;99.90;;;;;;5043531;28;20269;-77
2021/12/17 04:07:41;;;;;;;;;;;7.20;99.90;;;;;;5042827;28;19923;-76
2021/12/17 04:10:06;;;;;;;;;;;7.30;99.90;;;;;;5046405;28;19990;-78
2021/12/17 04:12:55;;;;;;;;;;;7.20;99.90;;;;;;5045724;28;19917;-77
2021/12/17 04:15:30;;;;;;;;;;;7.20;99.90;;;;;;5043997;28;20015;-77
2021/12/17 04:17:57;;;;;;;;;;;7.20;99.90;;;;;;5043654;28;20386;-77
2021/12/17 04:20:23;;;;;;;;;;;7.30;99.90;;;;;;5039635;28;19917;-78
2021/12/17 04:22:50;;;;;;;;;;;7.30;99.90;;;;;;5045760;28;19943;-77
2021/12/17 04:25:15;;;;;;;;;;;7.30;99.90;;;;;;5044778;28;19990;-77
2021/12/17 04:27:41;;;;;;;;;;;7.30;99.90;;;;;;5048603;28;19925;-78
2021/12/17 04:30:07;;;;;;;;;;;7.30;99.90;;;;;;5045600;28;20271;-78
2021/12/17 04:32:32;;;;;;;;;;;7.30;99.90;;;;;;5047962;28;19924;-77
2021/12/17 04:34:58;;;;;;;;;;;7.20;99.90;;;;;;5047901;28;19955;-77
2021/12/17 04:37:23;;;;;;;;;;;7.20;99.90;;;;;;5045926;28;19917;-77
2021/12/17 04:39:50;;;;;;;;;;;7.20;99.90;;;;;;5047261;28;21500;-77
2021/12/17 04:42:27;;;;;;;;;;;7.20;99.90;;;;;;5046545;28;19924;-76
2021/12/17 04:44:56;;;;;;;;;;;7.20;99.90;;;;;;5044929;28;19921;-77
2021/12/17 04:58:03;;;;;;;;;;;7.20;99.90;;;;;;5045331;28;20051;-78
2021/12/17 05:00:30;;;;;;;;;;;7.30;99.90;;;;;;5034665;28;19999;-77
2021/12/17 05:02:57;;;;;;;;;;;7.30;99.90;;;;;;5049711;28;20221;-77
2021/12/17 05:05:28;;;;;;;;;;;7.30;99.90;;;;;;5041875;28;20244;-76
2021/12/17 05:07:58;;;;;;;;;;;7.30;99.90;;;;;;5040093;28;19917;-77
2021/12/17 05:18:27;;;;;;;;;;;7.20;99.90;;;;;;5051754;28;20219;-77
2021/12/17 05:20:57;;;;;;;;;;;7.20;99.90;;;;;;5050036;28;20335;-76
2021/12/17 05:23:27;;;;;;;;;;;7.20;99.90;;;;;;5049917;28;19935;-77
2021/12/17 05:25:54;;;;;;;;;;;7.20;99.90;;;;;;5046572;28;19921;-76
2021/12/17 05:28:19;;;;;;;;;;;7.20;99.90;;;;;;5050585;28;19913;-76
2021/12/17 05:30:47;;;;;;;;;;;7.20;99.90;;;;;;5050838;28;20378;-77
2021/12/17 05:33:13;;;;;;;;;;;7.20;99.90;;;;;;5045259;28;19917;-76
2021/12/17 05:35:38;;;;;;;;;;;7.20;99.90;;;;;;5049349;28;19939;-77
2021/12/17 05:38:04;;;;;;;;;;;7.20;99.90;;;;;;5050251;28;19939;-76
2021/12/17 05:40:29;;;;;;;;;;;7.20;99.90;;;;;;5047539;28;19912;-76
2021/12/17 05:42:59;;;;;;;;;;;7.20;99.90;;;;;;5044186;28;19924;-76
2021/12/17 05:48:09;;;;;;;;;;;7.30;99.90;;;;;;5049519;28;19917;-77
2021/12/17 05:50:37;;;;;;;;;;;7.30;99.90;;;;;;5049642;28;20007;-76
2021/12/17 05:53:04;;;;;;;;;;;7.30;99.90;;;;;;5047395;28;19932;-77
2021/12/17 05:55:29;;;;;;;;;;;7.30;99.90;;;;;;5050117;28;19924;-76
2021/12/17 05:57:55;;;;;;;;;;;7.30;99.90;;;;;;5048001;28;19913;-76
2021/12/17 06:00:21;;;;;;;;;;;7.30;99.90;;;;;;5047494;28;19986;-76
2021/12/17 06:02:47;;;;;;;;;;;7.30;99.90;;;;;;5042081;28;20054;-77
2021/12/17 06:05:13;;;;;;;;;;;7.30;99.90;;;;;;5048713;28;20008;-76
2021/12/17 06:07:38;;;;;;;;;;;7.30;99.90;;;;;;5047780;28;20073;-77
2021/12/17 06:10:05;;;;;;;;;;;7.30;99.90;;;;;;5046881;28;19946;-76
2021/12/17 06:12:31;;;;;;;;;;;7.30;99.90;;;;;;5046538;28;20307;-76
2021/12/17 06:14:57;;;;;;;;;;;7.30;99.90;;;;;;5049218;28;19916;-76
2021/12/17 06:17:22;;;;;;;;;;;7.30;99.90;;;;;;5031861;28;19920;-76
2021/12/17 06:19:48;;;;;;;;;;;7.30;99.90;;;;;;5041962;28;19928;-76
2021/12/17 06:22:15;;;;;;;;;;;7.30;99.90;;;;;;5044918;28;20405;-77
2021/12/17 06:24:45;;;;;;;;;;;7.30;99.90;;;;;;5041770;28;19921;-76
2021/12/17 06:27:14;;;;;;;;;;;7.20;99.90;;;;;;5041193;28;19991;-77
2021/12/17 06:29:40;;;;;;;;;;;7.10;99.90;;;;;;5042914;28;19920;-76
2021/12/17 06:32:06;;;;;;;;;;;7.20;99.90;;;;;;5042786;28;19925;-76
2021/12/17 06:34:31;;;;;;;;;;;7.20;99.90;;;;;;5040609;28;19925;-77
2021/12/17 06:36:57;;;;;;;;;;;7.20;99.90;;;;;;5042310;28;20012;-77
2021/12/17 06:39:24;;;;;;;;;;;7.30;99.90;;;;;;5043365;28;19921;-76
2021/12/17 06:41:49;;;;;;;;;;;7.30;99.90;;;;;;5042655;28;20162;-76
2021/12/17 06:44:19;;;;;;;;;;;7.30;99.90;;;;;;5040131;28;20038;-76
2021/12/17 06:49:48;;;;;;;;;;;7.30;99.90;;;;;;5045572;28;19920;-76
2021/12/17 07:10:57;;;;;;;;;;;7.20;99.90;;;;;;5044807;28;19925;-77
2021/12/17 07:24:36;;;;;;;;;;;7.20;99.90;;;;;;5033410;28;19971;-76
2021/12/17 07:40:04;;;;;;;;;;;7.40;99.90;;;;;;5024792;28;19920;-76
2021/12/17 07:42:30;;;;;;;;;;;7.40;99.90;;;;;;5025158;28;20232;-77
2021/12/17 07:44:56;;;;;;;;;;;7.40;99.90;;;;;;5027357;28;19960;-76
2021/12/17 07:47:22;;;;;;;;;;;7.40;99.90;;;;;;5027636;28;19967;-76
2021/12/17 07:49:49;;;;;;;;;;;7.40;99.90;;;;;;5025144;28;19924;-76
2021/12/17 07:52:14;;;;;;;;;;;7.40;99.90;;;;;;5025017;28;19928;-76
2021/12/17 07:54:40;;;;;;;;;;;7.40;99.90;;;;;;5027717;28;19917;-77
2021/12/17 07:57:05;;;;;;;;;;;7.40;99.90;;;;;;5026999;28;20048;-76
2021/12/17 07:59:31;;;;;;;;;;;7.40;99.90;;;;;;5028357;28;19924;-76
2021/12/17 08:01:56;;;;;;;;;;;7.40;99.90;;;;;;5029169;28;19979;-77
2021/12/17 08:04:23;;;;;;;;;;;7.40;99.90;;;;;;5025952;28;19921;-76
2021/12/17 08:06:48;;;;;;;;;;;7.40;99.90;;;;;;5028292;28;20024;-77
2021/12/17 08:09:14;;;;;;;;;;;7.40;99.90;;;;;;5030095;28;20012;-77
2021/12/17 08:11:40;;;;;;;;;;;7.40;99.90;;;;;;5029191;28;20365;-77
2021/12/17 08:14:11;;;;;;;;;;;7.40;99.90;;;;;;5028826;28;19979;-77
2021/12/17 08:16:55;;;;;;;;;;;7.40;99.90;;;;;;5031234;28;19927;-76
2021/12/17 08:25:10;;;;;;;;;;;7.40;99.90;;;;;;5030402;28;20244;-76
2021/12/17 08:30:21;;;;;;;;;;;7.40;99.90;;;;;;5031466;28;20235;-76
2021/12/17 08:32:47;;;;;;;;;;;7.40;99.90;;;;;;5028710;28;20320;-76
2021/12/17 08:35:13;;;;;;;;;;;7.50;99.90;;;;;;5030181;28;20003;-76
2021/12/17 08:37:39;;;;;;;;;;;7.50;99.90;;;;;;5028249;28;20011;-77
2021/12/17 08:40:06;;;;;;;;;;;7.40;99.90;;;;;;5027913;28;20008;-78
2021/12/17 08:42:31;;;;;;;;;;;7.40;99.90;;;;;;5031521;28;20805;-78
2021/12/17 08:44:59;;;;;;;;;;;7.40;99.90;;;;;;5029655;28;20028;-76
2021/12/17 08:47:25;;;;;;;;;;;7.40;99.90;;;;;;5030449;28;19914;-76
2021/12/17 08:49:51;;;;;;;;;;;7.50;99.90;;;;;;5029397;28;19928;-76
2021/12/17 08:52:17;;;;;;;;;;;7.50;99.90;;;;;;5029163;28;19975;-76
2021/12/17 08:54:42;;;;;;;;;;;7.50;99.90;;;;;;5028869;28;19925;-76
2021/12/17 08:57:09;;;;;;;;;;;7.50;99.90;;;;;;5030572;28;19964;-76
2021/12/17 08:59:35;;;;;;;;;;;7.50;99.90;;;;;;5030015;28;20027;-76
2021/12/17 09:02:00;;;;;;;;;;;7.50;99.90;;;;;;5030323;28;20443;-76
2021/12/17 09:04:27;;;;;;;;;;;7.40;99.90;;;;;;5029528;28;19975;-77
2021/12/17 09:06:54;;;;;;;;;;;7.50;99.90;;;;;;5030869;28;19925;-76
2021/12/17 09:09:22;;;;;;;;;;;7.40;99.90;;;;;;5027145;28;19921;-76
2021/12/17 09:11:47;;;;;;;;;;;7.50;99.90;;;;;;5027143;28;20033;-76
2021/12/17 09:14:13;;;;;;;;;;;7.50;99.90;;;;;;5029964;28;20047;-76
2021/12/17 09:16:39;;;;;;;;;;;7.60;99.90;;;;;;5026832;28;19917;-76
2021/12/17 09:19:07;;;;;;;;;;;7.60;99.90;;;;;;5026088;28;19975;-76
2021/12/17 09:21:33;;;;;;;;;;;7.70;99.90;;;;;;5030587;28;19920;-76
2021/12/17 09:23:58;;;;;;;;;;;7.60;99.90;;;;;;5028397;28;19992;-77
2021/12/17 09:26:24;;;;;;;;;;;7.60;99.90;;;;;;5028429;28;20309;-76
2021/12/17 09:28:50;;;;;;;;;;;7.60;99.90;;;;;;5028757;28;19917;-76
2021/12/17 09:31:16;;;;;;;;;;;7.70;99.90;;;;;;5029181;28;19971;-76
2021/12/17 09:33:45;;;;;;;;;;;7.70;99.90;;;;;;5019536;28;20199;-75
2021/12/17 09:36:12;;;;;;;;;;;7.70;99.90;;;;;;5028404;28;19967;-76
2021/12/17 09:38:37;;;;;;;;;;;7.80;99.90;;;;;;5027127;28;19969;-76
2021/12/17 09:41:03;;;;;;;;;;;7.80;99.90;;;;;;5025763;28;19952;-75
2021/12/17 09:43:29;;;;;;;;;;;7.80;99.90;;;;;;5029302;28;20328;-76
2021/12/17 09:45:56;;;;;;;;;;;7.90;99.90;;;;;;5026829;28;20231;-76
2021/12/17 09:48:21;;;;;;;;;;;7.90;99.90;;;;;;5027291;28;20319;-76
2021/12/17 09:50:47;;;;;;;;;;;7.90;99.90;;;;;;5026834;28;19960;-75
2021/12/17 09:53:13;;;;;;;;;;;7.90;99.90;;;;;;5026541;28;19943;-75
2021/12/17 09:55:39;;;;;;;;;;;7.90;99.90;;;;;;5027592;28;19917;-76
2021/12/17 09:58:04;;;;;;;;;;;7.90;99.90;;;;;;5029961;28;19921;-76
2021/12/17 10:00:30;;;;;;;;;;;7.90;99.90;;;;;;5027268;28;19913;-76
2021/12/17 10:02:56;;;;;;;;;;;7.90;99.90;;;;;;5030581;28;20619;-76
2021/12/17 10:05:26;;;;;;;;;;;7.90;99.90;;;;;;5027999;28;19917;-76
2021/12/17 10:07:53;;;;;;;;;;;8.00;99.90;;;;;;5027450;28;20327;-75
2021/12/17 10:10:19;;;;;;;;;;;8.00;99.90;;;;;;5030521;28;20371;-76
2021/12/17 10:12:46;;;;;;;;;;;8.00;99.90;;;;;;5028879;28;19917;-76
2021/12/17 10:15:16;;;;;;;;;;;8.00;99.90;;;;;;5029176;28;19913;-76
2021/12/17 10:17:53;;;;;;;;;;;8.00;99.90;;;;;;5029034;28;19999;-76
2021/12/17 10:20:18;;;;;;;;;;;8.00;99.90;;;;;;5028257;28;19919;-76
2021/12/17 10:22:54;;;;;;;;;;;8.00;99.90;;;;;;5028164;28;19916;-76
2021/12/17 10:25:21;;;;;;;;;;;8.00;99.90;;;;;;5026630;28;19921;-76
2021/12/17 10:27:47;;;;;;;;;;;8.00;99.90;;;;;;5023709;28;20430;-76
2021/12/17 10:30:21;;;;;;;;;;;8.00;99.90;;;;;;5028038;28;20210;-76
2021/12/17 10:32:49;;;;;;;;;;;8.10;99.90;;;;;;5026446;28;19917;-76
2021/12/17 10:35:17;;;;;;;;;;;8.10;99.90;;;;;;5030333;28;19945;-76
2021/12/17 10:37:44;;;;;;;;;;;8.10;99.90;;;;;;5026039;28;19921;-76
2021/12/17 10:40:14;;;;;;;;;;;8.20;99.90;;;;;;5026309;28;19921;-76
2021/12/17 10:42:43;;;;;;;;;;;8.20;99.90;;;;;;5027783;28;20011;-76
2021/12/17 10:45:12;;;;;;;;;;;8.20;99.90;;;;;;5026928;28;19920;-77
2021/12/17 10:47:57;;;;;;;;;;;8.20;99.90;;;;;;5016523;28;19913;-76
2021/12/17 10:50:24;;;;;;;;;;;8.30;99.90;;;;;;5021238;28;19917;-76
2021/12/17 10:53:06;;;;;;;;;;;8.20;99.90;;;;;;5034733;28;19959;-76
2021/12/17 10:55:32;;;;;;;;;;;8.20;99.90;;;;;;5034152;28;20008;-76
2021/12/17 10:57:59;;;;;;;;;;;8.20;99.90;;;;;;5035537;28;20067;-75
2021/12/17 11:00:24;;;;;;;;;;;8.20;99.90;;;;;;5039764;28;20239;-76
2021/12/17 11:02:50;;;;;;;;;;;8.10;99.90;;;;;;5054509;28;19916;-76
2021/12/17 11:05:17;;;;;;;;;;;8.00;99.90;;;;;;5047457;28;20223;-77
2021/12/17 11:07:50;;;;;;;;;;;8.00;99.90;;;;;;5034002;28;19917;-77
2021/12/17 11:10:16;;;;;;;;;;;8.10;99.90;;;;;;5041007;28;19983;-76
2021/12/17 11:12:44;;;;;;;;;;;8.10;99.90;;;;;;5035717;28;20304;-77
2021/12/17 11:15:13;;;;;;;;;;;8.10;99.90;;;;;;5034108;28;19920;-77
2021/12/17 11:17:40;;;;;;;;;;;8.10;99.90;;;;;;5033921;28;19959;-76
2021/12/17 11:20:07;;;;;;;;;;;8.10;99.90;;;;;;5037459;28;19913;-76
2021/12/17 11:22:33;;;;;;;;;;;8.20;99.90;;;;;;5034574;28;19917;-76
2021/12/17 11:25:00;;;;;;;;;;;8.30;99.90;;;;;;5032068;28;19929;-76
2021/12/17 11:27:26;;;;;;;;;;;8.40;99.90;;;;;;5032201;28;19992;-76
2021/12/17 11:29:52;;;;;;;;;;;8.40;99.90;;;;;;5031665;28;20368;-75
2021/12/17 11:32:19;;;;;;;;;;;8.40;99.90;;;;;;5031597;28;19967;-76
2021/12/17 11:34:44;;;;;;;;;;;8.50;99.90;;;;;;5031210;28;19921;-76
2021/12/17 11:37:10;;;;;;;;;;;8.50;99.90;;;;;;5041076;28;20271;-76
2021/12/17 11:39:40;;;;;;;;;;;8.50;99.90;;;;;;5034327;28;19917;-76
2021/12/17 11:42:24;;;;;;;;;;;8.50;99.90;;;;;;5034460;28;19913;-76
2021/12/17 11:45:22;;;;;;;;;;;8.50;99.90;;;;;;5031479;28;20024;-77
2021/12/17 11:47:39;;;;;;;;;;;8.50;99.90;;;;;;5031418;28;19995;-76
2021/12/17 11:50:05;;;;;;;;;;;8.50;99.90;;;;;;5030374;28;20004;-76
2021/12/17 11:52:34;;;;;;;;;;;8.50;99.90;;;;;;5030517;28;19916;-76
2021/12/17 11:55:18;;;;;;;;;;;8.50;99.90;;;;;;5032967;28;19916;-76
2021/12/17 11:57:44;;;;;;;;;;;8.50;99.90;;;;;;5024992;28;19913;-76
2021/12/17 12:00:23;;;;;;;;;;;8.60;99.90;;;;;;5033587;28;19959;-76
2021/12/17 12:02:49;;;;;;;;;;;8.60;99.90;;;;;;5026866;28;19919;-76
2021/12/17 12:05:35;;;;;;;;;;;8.60;99.90;;;;;;5034036;28;19931;-75
2021/12/17 12:08:19;;;;;;;;;;;8.60;99.90;;;;;;5029231;28;20308;-76
2021/12/17 12:11:01;;;;;;;;;;;8.60;99.90;;;;;;5030489;28;20012;-76
2021/12/17 12:13:52;;;;;;;;;;;8.70;99.90;;;;;;5029545;28;19921;-76
2021/12/17 12:16:20;;;;;;;;;;;8.70;99.90;;;;;;5036972;28;19917;-77
2021/12/17 12:18:49;;;;;;;;;;;8.80;99.90;;;;;;5032393;28;20312;-76
2021/12/17 12:21:18;;;;;;;;;;;8.70;99.90;;;;;;5024483;28;19928;-76
2021/12/17 12:23:45;;;;;;;;;;;8.80;99.90;;;;;;5024694;28;19921;-76
2021/12/17 12:26:13;;;;;;;;;;;8.80;99.90;;;;;;5020686;28;19917;-76
2021/12/17 12:28:44;;;;;;;;;;;8.80;99.90;;;;;;5020698;28;20225;-76
2021/12/17 12:31:10;;;;;;;;;;;8.80;99.90;;;;;;5023898;28;20033;-76
2021/12/17 12:33:36;;;;;;;;;;;8.80;99.90;;;;;;5020022;28;20436;-76
2021/12/17 12:36:01;;;;;;;;;;;8.80;99.90;;;;;;5022137;28;20004;-76
2021/12/17 12:38:30;;;;;;;;;;;8.90;99.90;;;;;;5020705;28;19917;-76
2021/12/17 12:40:57;;;;;;;;;;;8.90;99.90;;;;;;5022452;28;20217;-76
2021/12/17 12:43:30;;;;;;;;;;;8.80;99.90;;;;;;5025340;28;20012;-77
2021/12/17 12:45:56;;;;;;;;;;;8.80;99.90;;;;;;5021141;28;19924;-76
2021/12/17 12:48:32;;;;;;;;;;;8.80;99.90;;;;;;5025727;28;20262;-76
2021/12/17 12:51:34;;;;;;;;;;;8.90;99.90;;;;;;5024930;28;19967;-76
2021/12/17 12:54:06;;;;;;;;;;;8.90;99.90;;;;;;5007237;28;20336;-76
2021/12/17 12:56:32;;;;;;;;;;;8.90;99.90;;;;;;4934945;28;19961;-76
2021/12/17 12:58:57;;;;;;;;;;;8.80;99.90;;;;;;4950175;28;20316;-76
2021/12/17 13:01:23;;;;;;;;;;;8.80;99.90;;;;;;4965528;28;19918;-76
2021/12/17 13:03:49;;;;;;;;;;;8.70;99.90;;;;;;4965552;28;20221;-76
2021/12/17 13:06:17;;;;;;;;;;;8.80;99.90;;;;;;4964366;28;19918;-77
2021/12/17 13:08:43;;;;;;;;;;;8.80;99.90;;;;;;4968746;28;19922;-75
2021/12/17 13:11:09;;;;;;;;;;;8.80;99.90;;;;;;4963841;28;19922;-76
2021/12/17 13:13:45;;;;;;;;;;;8.70;99.90;;;;;;4964172;28;19925;-75
2021/12/17 13:16:24;;;;;;;;;;;8.70;99.90;;;;;;4957823;28;19918;-75
2021/12/17 13:21:44;;;;;;;;;;;8.60;99.90;;;;;;4952056;28;19976;-76
2021/12/17 13:24:15;;;;;;;;;;;8.60;99.90;;;;;;4957778;28;19930;-76
2021/12/17 13:26:51;;;;;;;;;;;8.60;99.90;;;;;;4955972;28;19922;-77
2021/12/17 13:29:34;;;;;;;;;;;8.60;99.90;;;;;;4973786;28;20367;-76
2021/12/17 13:32:04;;;;;;;;;;;8.50;99.90;;;;;;4990329;28;20311;-76
2021/12/17 13:34:34;;;;;;;;;;;8.50;99.90;;;;;;4989153;28;20233;-76
2021/12/17 13:37:02;;;;;;;;;;;8.50;99.90;;;;;;4990128;28;19917;-75
2021/12/17 13:39:30;;;;;;;;;;;8.50;99.90;;;;;;4990881;28;19988;-75
2021/12/17 13:41:56;;;;;;;;;;;8.50;99.90;;;;;;4990434;28;19928;-76
2021/12/17 13:44:25;;;;;;;;;;;8.50;99.90;;;;;;4990189;28;19918;-76
2021/12/17 13:46:51;;;;;;;;;;;8.40;99.90;;;;;;4994687;28;19945;-77
2021/12/17 13:49:17;;;;;;;;;;;8.40;99.90;;;;;;4989261;28;19957;-80
2021/12/17 13:51:42;;;;;;;;;;;8.40;99.90;;;;;;4990838;28;20221;-76
2021/12/17 13:54:08;;;;;;;;;;;8.40;99.90;;;;;;4988031;28;21015;-76
2021/12/17 13:56:34;;;;;;;;;;;8.40;99.90;;;;;;4989803;28;19922;-76
2021/12/17 13:59:00;;;;;;;;;;;8.40;99.90;;;;;;4988123;28;19918;-76
2021/12/17 14:01:26;;;;;;;;;;;8.40;99.90;;;;;;4989817;28;20620;-75
2021/12/17 14:03:51;;;;;;;;;;;8.40;99.90;;;;;;4999065;28;19917;-76
2021/12/17 14:06:23;;;;;;;;;;;8.40;99.90;;;;;;4988928;28;20381;-76
2021/12/17 14:08:51;;;;;;;;;;;8.40;99.90;;;;;;4989293;28;19921;-76
2021/12/17 14:11:20;;;;;;;;;;;8.40;99.90;;;;;;5004019;28;19926;-76
2021/12/17 14:13:46;;;;;;;;;;;8.40;99.90;;;;;;4985133;28;20347;-76
2021/12/17 14:16:14;;;;;;;;;;;8.30;99.90;;;;;;4998327;28;19957;-76
2021/12/17 14:18:41;;;;;;;;;;;8.30;99.90;;;;;;4990411;28;20205;-75
2021/12/17 14:21:07;;;;;;;;;;;8.20;99.90;;;;;;4980141;28;20053;-75
2021/12/17 14:23:38;;;;;;;;;;;8.20;99.90;;;;;;4978965;28;19930;-75
2021/12/17 14:26:08;;;;;;;;;;;8.20;99.90;;;;;;4988442;28;20296;-76
2021/12/17 14:28:36;;;;;;;;;;;8.20;99.90;;;;;;4997096;28;19981;-75
2021/12/17 14:31:17;;;;;;;;;;;8.20;99.90;;;;;;4989482;28;19956;-75
2021/12/17 14:33:46;;;;;;;;;;;8.20;99.90;;;;;;4989967;28;20229;-76
2021/12/17 14:36:18;;;;;;;;;;;8.20;99.90;;;;;;4989950;28;19924;-76
2021/12/17 14:38:49;;;;;;;;;;;8.10;99.90;;;;;;4988103;28;20480;-76
2021/12/17 14:41:18;;;;;;;;;;;8.10;99.90;;;;;;5000289;28;20218;-76
2021/12/17 14:43:53;;;;;;;;;;;8.10;99.90;;;;;;4987731;28;19914;-76
2021/12/17 14:46:29;;;;;;;;;;;8.10;99.90;;;;;;4996626;28;20055;-76
2021/12/17 14:49:15;;;;;;;;;;;8.00;99.90;;;;;;4987349;28;19941;-76
2021/12/17 14:57:23;;;;;;;;;;;8.00;99.90;;;;;;4989580;28;20012;-75
2021/12/17 14:57:28;;;;;;;;;;;7.90;99.90;;;;;;4988817;28;19925;-76
2021/12/17 15:02:51;;;;;;;;;;;7.90;99.90;;;;;;4989710;28;19922;-76
2021/12/17 15:05:18;;;;;;;;;;;7.90;99.90;;;;;;4988566;28;19993;-76
2021/12/17 15:07:44;;;;;;;;;;;7.90;99.90;;;;;;4989271;28;19965;-76
2021/12/17 15:10:11;;;;;;;;;;;7.90;99.90;;;;;;4989013;28;19925;-76
2021/12/17 15:12:38;;;;;;;;;;;7.80;99.90;;;;;;4989173;28;20315;-76
2021/12/17 15:15:05;;;;;;;;;;;7.90;99.90;;;;;;4988289;28;19950;-76
2021/12/17 15:17:32;;;;;;;;;;;7.90;99.90;;;;;;4988827;28;19918;-76
2021/12/17 15:19:58;;;;;;;;;;;7.80;99.90;;;;;;4998955;28;20003;-76
2021/12/17 15:22:23;;;;;;;;;;;7.80;99.90;;;;;;4979307;28;20628;-76
2021/12/17 15:24:49;;;;;;;;;;;7.80;99.90;;;;;;4976750;28;20260;-76
2021/12/17 15:27:14;;;;;;;;;;;7.70;99.90;;;;;;4995293;28;20253;-75
2021/12/17 15:29:40;;;;;;;;;;;7.80;99.90;;;;;;4996507;28;19930;-76
2021/12/17 15:32:06;;;;;;;;;;;7.80;99.90;;;;;;4987032;28;19926;-75
2021/12/17 15:34:32;;;;;;;;;;;7.90;99.90;;;;;;4987610;28;20364;-75
2021/12/17 15:36:58;;;;;;;;;;;7.90;99.90;;;;;;5002127;28;19918;-75
2021/12/17 15:39:26;;;;;;;;;;;7.80;99.90;;;;;;4998520;28;19922;-75
2021/12/17 15:41:52;;;;;;;;;;;7.90;99.90;;;;;;4986883;28;20195;-76
2021/12/17 15:44:17;;;;;;;;;;;7.80;99.90;;;;;;4984025;28;20352;-76
2021/12/17 15:46:43;;;;;;;;;;;7.80;99.90;;;;;;4989260;28;19928;-75
2021/12/17 15:49:08;;;;;;;;;;;7.80;99.90;;;;;;5000763;28;19924;-75
2021/12/17 15:51:36;;;;;;;;;;;7.80;99.90;;;;;;4985210;28;19922;-76
2021/12/17 15:54:05;;;;;;;;;;;7.80;99.90;;;;;;4986066;28;19918;-76
2021/12/17 15:56:32;;;;;;;;;;;7.80;99.90;;;;;;4987262;28;19917;-75
2021/12/17 15:58:58;;;;;;;;;;;7.80;99.90;;;;;;4988705;28;20269;-75
2021/12/17 16:01:23;;;;;;;;;;;7.80;99.90;;;;;;4985773;28;19918;-75
2021/12/17 16:03:49;;;;;;;;;;;7.80;99.90;;;;;;4986660;28;19928;-75
2021/12/17 16:06:15;;;;;;;;;;;7.80;99.90;;;;;;4986542;28;20591;-75
2021/12/17 16:08:47;;;;;;;;;;;7.80;99.90;;;;;;5003133;28;20346;-75
2021/12/17 16:22:03;;;;;;;;;;;7.60;99.90;;;;;;4993442;28;19976;-76
2021/12/17 16:24:37;;;;;;;;;;;7.70;99.90;;;;;;4990962;28;20385;-75
2021/12/17 16:27:07;;;;;;;;;;;7.70;99.90;;;;;;4998389;28;19914;-75
2021/12/17 16:29:33;;;;;;;;;;;7.70;99.90;;;;;;4998029;28;20293;-75
2021/12/17 16:31:58;;;;;;;;;;;7.70;99.90;;;;;;4997815;28;19921;-75
2021/12/17 16:34:24;;;;;;;;;;;7.70;99.90;;;;;;4987152;28;20015;-75
2021/12/17 16:36:50;;;;;;;;;;;7.60;99.90;;;;;;4999827;28;19918;-75
2021/12/17 16:39:17;;;;;;;;;;;7.60;99.90;;;;;;4998970;28;19920;-76
2021/12/17 16:41:43;;;;;;;;;;;7.60;99.90;;;;;;4999053;28;19913;-76
2021/12/17 16:44:11;;;;;;;;;;;7.70;99.90;;;;;;4997716;28;20033;-76
2021/12/17 16:49:08;;;;;;;;;;;7.70;99.90;;;;;;4996994;28;19917;-76
2021/12/17 16:51:33;;;;;;;;;;;7.70;99.90;;;;;;4999030;28;19969;-75
2021/12/17 16:53:59;;;;;;;;;;;7.70;99.90;;;;;;4998545;28;19956;-76
2021/12/17 16:56:25;;;;;;;;;;;7.70;99.90;;;;;;4995698;28;20258;-75
2021/12/17 16:58:51;;;;;;;;;;;7.70;99.90;;;;;;4997974;28;19937;-75
2021/12/17 17:01:24;;;;;;;;;;;7.70;99.90;;;;;;5008230;28;19926;-76
2021/12/17 17:03:50;;;;;;;;;;;7.80;99.90;;;;;;4993186;28;19921;-75
2021/12/17 17:06:16;;;;;;;;;;;7.70;99.90;;;;;;4996431;28;19940;-75
2021/12/17 17:08:44;;;;;;;;;;;7.70;99.90;;;;;;5006566;28;19917;-76
2021/12/17 17:11:13;;;;;;;;;;;7.70;99.90;;;;;;5017913;28;20308;-76
2021/12/17 17:13:39;;;;;;;;;;;7.80;99.90;;;;;;5018021;28;19917;-75
2021/12/17 17:16:05;;;;;;;;;;;7.70;99.90;;;;;;5013573;28;19921;-76
2021/12/17 17:18:38;;;;;;;;;;;7.70;99.90;;;;;;4998829;28;19917;-77
2021/12/17 17:21:05;;;;;;;;;;;7.70;99.90;;;;;;4995991;28;19948;-75
2021/12/17 17:23:35;;;;;;;;;;;7.80;99.90;;;;;;4996439;28;19925;-76
2021/12/17 17:26:02;;;;;;;;;;;7.80;99.90;;;;;;4995223;28;19947;-76
2021/12/17 17:28:28;;;;;;;;;;;7.80;99.90;;;;;;5001661;28;19909;-76
2021/12/17 17:30:54;;;;;;;;;;;7.80;99.90;;;;;;5017758;28;19963;-76
2021/12/17 17:33:20;;;;;;;;;;;7.80;99.90;;;;;;4996283;28;20001;-76
2021/12/17 17:35:46;;;;;;;;;;;7.80;99.90;;;;;;5010544;28;19918;-75
2021/12/17 17:38:11;;;;;;;;;;;7.90;99.90;;;;;;5000790;28;19921;-75
2021/12/17 17:40:38;;;;;;;;;;;7.90;99.90;;;;;;4992312;28;19921;-76
2021/12/17 17:43:04;;;;;;;;;;;7.90;99.90;;;;;;5011136;28;20006;-76
2021/12/17 17:45:34;;;;;;;;;;;7.90;99.90;;;;;;4996986;28;19918;-76
2021/12/17 17:47:59;;;;;;;;;;;7.80;99.90;;;;;;5013005;28;20194;-76
2021/12/17 17:50:26;;;;;;;;;;;7.90;99.90;;;;;;4997731;28;20005;-75